createdAt,value
2023-07-09T00:01:19.271Z,73.90
2023-07-09T00:03:52.945Z,74.70
2023-07-09T00:06:22.317Z,74.80
2023-07-09T00:08:50.459Z,75.90
2023-07-09T00:11:17.748Z,76.20
2023-07-09T00:13:44.827Z,76.20
2023-07-09T00:16:22.563Z,76.50
2023-07-09T00:18:50.171Z,76.20
2023-07-09T00:21:18.977Z,78.00
2023-07-09T00:23:45.872Z,78.10
2023-07-09T00:26:14.790Z,78.50
2023-07-09T00:28:42.378Z,79.70
2023-07-09T00:31:14.577Z,81.10
2023-07-09T00:33:41.829Z,80.40
2023-07-09T00:36:27.698Z,79.70
2023-07-09T00:38:54.468Z,79.40
2023-07-09T00:41:24.070Z,80.20
2023-07-09T00:43:52.597Z,81.10
2023-07-09T00:46:24.749Z,78.90
2023-07-09T00:48:58.992Z,77.70
2023-07-09T00:51:28.296Z,76.90
2023-07-09T00:53:59.956Z,76.60
2023-07-09T00:56:39.317Z,76.70
2023-07-09T00:59:09.427Z,78.50
2023-07-09T01:01:36.426Z,79.10
2023-07-09T01:04:05.617Z,79.60
2023-07-09T01:06:36.335Z,79.60
2023-07-09T01:09:05.791Z,79.80
2023-07-09T01:11:32.608Z,79.80
2023-07-09T01:14:05.188Z,79.40
2023-07-09T01:16:38.408Z,78.80
2023-07-09T01:19:06.324Z,79.20
2023-07-09T01:21:33.381Z,79.40
2023-07-09T01:24:12.027Z,79.60
2023-07-09T01:26:39.670Z,80.20
2023-07-09T01:29:07.340Z,81.70
2023-07-09T01:31:34.949Z,82.90
2023-07-09T01:34:01.774Z,82.70
2023-07-09T01:36:29.538Z,82.70
2023-07-09T01:38:57.905Z,82.70
2023-07-09T01:41:24.877Z,82.40
2023-07-09T01:43:51.612Z,82.70
2023-07-09T01:46:18.451Z,82.40
2023-07-09T01:48:45.915Z,82.40
2023-07-09T01:51:17.444Z,83.00
2023-07-09T01:53:45.549Z,83.40
2023-07-09T01:56:12.769Z,83.80
2023-07-09T01:58:42.653Z,83.80
2023-07-09T02:01:11.004Z,84.60
2023-07-09T02:03:37.850Z,84.20
2023-07-09T02:06:10.633Z,83.50
2023-07-09T02:08:37.953Z,84.40
2023-07-09T02:11:04.668Z,85.20
2023-07-09T02:13:31.526Z,85.70
2023-07-09T02:15:58.239Z,86.20
2023-07-09T02:18:25.127Z,86.60
2023-07-09T02:20:51.838Z,87.00
2023-07-09T02:23:18.542Z,88.10
2023-07-09T02:25:45.319Z,89.20
2023-07-09T02:28:12.071Z,90.20
2023-07-09T02:30:38.901Z,90.70
2023-07-09T02:33:05.832Z,91.00
2023-07-09T02:35:32.611Z,91.30
2023-07-09T02:37:59.342Z,91.80
2023-07-09T02:40:26.036Z,92.30
2023-07-09T02:42:52.785Z,92.80
2023-07-09T02:45:19.772Z,93.00
2023-07-09T02:47:47.297Z,93.30
2023-07-09T02:50:14.320Z,93.40
2023-07-09T02:52:43.252Z,93.40
2023-07-09T02:55:10.091Z,93.50
2023-07-09T02:57:36.840Z,93.70
2023-07-09T03:00:06.295Z,94.00
2023-07-09T03:02:33.535Z,94.20
2023-07-09T03:05:00.365Z,94.40
2023-07-09T03:07:27.177Z,94.90
2023-07-09T03:09:54.077Z,95.20
2023-07-09T03:12:20.814Z,95.90
2023-07-09T03:14:50.624Z,96.60
2023-07-09T03:17:17.455Z,97.50
2023-07-09T03:19:44.405Z,98.10
2023-07-09T03:22:11.311Z,98.60
2023-07-09T03:24:38.030Z,99.00
2023-07-09T03:27:05.335Z,99.50
2023-07-09T03:29:32.054Z,99.80
2023-07-09T03:31:58.820Z,99.90
2023-07-09T03:34:25.822Z,99.90
2023-07-09T03:36:52.657Z,99.90
2023-07-09T03:39:19.611Z,99.90
2023-07-09T03:41:46.436Z,99.90
2023-07-09T03:44:14.055Z,99.90
2023-07-09T03:46:40.796Z,99.90
2023-07-09T03:49:07.735Z,99.90
2023-07-09T03:51:34.644Z,99.90
2023-07-09T03:54:01.389Z,99.90
2023-07-09T03:56:28.130Z,99.90
2023-07-09T03:58:54.906Z,99.90
2023-07-09T04:01:21.739Z,99.90
2023-07-09T04:03:48.688Z,99.90
2023-07-09T04:06:15.497Z,99.90
2023-07-09T04:08:42.216Z,99.90
2023-07-09T04:11:09.061Z,99.90
2023-07-09T04:13:35.835Z,99.90
2023-07-09T04:16:02.957Z,99.90
2023-07-09T04:18:30.474Z,99.90
2023-07-09T04:20:57.204Z,99.90
2023-07-09T04:23:24.148Z,99.90
2023-07-09T04:25:50.994Z,99.90
2023-07-09T04:28:18.278Z,99.90
2023-07-09T04:30:49.066Z,99.90
2023-07-09T04:33:18.484Z,99.90
2023-07-09T04:35:47.184Z,99.90
2023-07-09T04:38:14.706Z,99.90
2023-07-09T04:40:42.104Z,99.90
2023-07-09T04:43:09.103Z,99.90
2023-07-09T04:45:36.001Z,99.90
2023-07-09T04:48:03.099Z,99.90
2023-07-09T04:50:29.843Z,99.60
2023-07-09T04:52:56.669Z,99.30
2023-07-09T04:55:23.402Z,98.90
2023-07-09T04:57:50.539Z,98.50
2023-07-09T05:00:17.840Z,98.20
2023-07-09T05:02:44.730Z,97.90
2023-07-09T05:05:13.028Z,97.90
2023-07-09T05:07:40.981Z,98.00
2023-07-09T05:10:08.509Z,97.50
2023-07-09T05:12:35.249Z,97.40
2023-07-09T05:15:02.061Z,97.30
2023-07-09T05:17:28.912Z,97.10
2023-07-09T05:19:55.651Z,96.90
2023-07-09T05:22:22.420Z,96.80
2023-07-09T05:24:49.181Z,96.60
2023-07-09T05:27:15.887Z,96.30
2023-07-09T05:29:42.626Z,96.00
2023-07-09T05:32:09.392Z,95.70
2023-07-09T05:34:36.105Z,95.60
2023-07-09T05:37:02.861Z,95.50
2023-07-09T05:39:29.630Z,95.10
2023-07-09T05:41:56.344Z,94.80
2023-07-09T05:44:23.228Z,94.40
2023-07-09T05:46:50.145Z,94.70
2023-07-09T05:49:16.895Z,94.30
2023-07-09T05:51:43.602Z,94.30
2023-07-09T05:54:10.651Z,93.90
2023-07-09T05:56:37.342Z,93.50
2023-07-09T05:59:04.142Z,93.40
2023-07-09T06:01:30.909Z,93.50
2023-07-09T06:03:57.973Z,93.10
2023-07-09T06:06:24.938Z,92.90
2023-07-09T06:08:51.674Z,92.40
2023-07-09T06:11:19.170Z,92.10
2023-07-09T06:13:49.256Z,92.20
2023-07-09T06:16:17.182Z,91.90
2023-07-09T06:18:44.201Z,91.50
2023-07-09T06:21:12.628Z,91.50
2023-07-09T06:23:39.566Z,91.50
2023-07-09T06:26:06.681Z,90.80
2023-07-09T06:28:34.245Z,90.50
2023-07-09T06:31:01.217Z,90.60
2023-07-09T06:33:28.963Z,90.40
2023-07-09T06:35:59.060Z,89.70
2023-07-09T06:38:26.591Z,89.00
2023-07-09T06:40:53.997Z,87.50
2023-07-09T06:43:21.498Z,86.60
2023-07-09T06:45:58.210Z,86.70
2023-07-09T06:48:26.983Z,85.40
2023-07-09T06:50:55.449Z,85.10
2023-07-09T06:53:23.168Z,85.20
2023-07-09T06:55:50.204Z,84.70
2023-07-09T06:58:18.392Z,84.10
2023-07-09T07:00:45.936Z,83.20
2023-07-09T07:03:13.340Z,83.80
2023-07-09T07:05:48.688Z,81.90
2023-07-09T07:08:17.028Z,82.90
2023-07-09T07:10:44.130Z,82.50
2023-07-09T07:13:11.586Z,82.10
2023-07-09T07:15:39.153Z,82.30
2023-07-09T07:18:07.285Z,81.00
2023-07-09T07:20:34.892Z,81.10
2023-07-09T07:23:01.742Z,79.60
2023-07-09T07:25:28.501Z,79.80
2023-07-09T07:27:55.442Z,80.50
2023-07-09T07:30:23.952Z,79.10
2023-07-09T07:32:52.697Z,78.50
2023-07-09T07:35:20.485Z,78.10
2023-07-09T07:37:47.415Z,78.10
2023-07-09T07:40:14.313Z,78.10
2023-07-09T07:42:41.083Z,77.00
2023-07-09T07:45:08.971Z,78.10
2023-07-09T07:47:38.190Z,76.60
2023-07-09T07:50:06.207Z,77.10
2023-07-09T07:52:33.289Z,76.80
2023-07-09T07:55:00.011Z,76.90
2023-07-09T07:57:27.321Z,76.20
2023-07-09T07:59:54.200Z,75.80
2023-07-09T08:02:21.093Z,75.30
2023-07-09T08:04:47.891Z,75.00
2023-07-09T08:07:14.788Z,74.70
2023-07-09T08:09:41.582Z,74.00
2023-07-09T08:12:16.068Z,73.90
2023-07-09T08:14:45.868Z,72.60
2023-07-09T08:17:12.811Z,72.80
2023-07-09T08:19:48.428Z,71.30
2023-07-09T08:22:16.113Z,70.90
2023-07-09T08:24:43.704Z,71.20
2023-07-09T08:27:10.941Z,70.60
2023-07-09T08:29:37.787Z,71.30
2023-07-09T08:32:05.465Z,70.90
2023-07-09T08:34:32.269Z,70.80
2023-07-09T08:36:59.191Z,70.40
2023-07-09T08:39:26.103Z,69.20
2023-07-09T08:42:03.635Z,69.10
2023-07-09T08:44:55.246Z,69.20
2023-07-09T08:47:27.593Z,69.10
2023-07-09T08:50:24.842Z,68.60
2023-07-09T08:52:53.939Z,67.60
2023-07-09T08:55:28.001Z,67.80
2023-07-09T08:58:00.866Z,67.80
2023-07-09T09:00:46.144Z,68.00
2023-07-09T09:03:22.646Z,67.30
2023-07-09T09:05:50.619Z,67.30
2023-07-09T09:08:35.925Z,66.50
2023-07-09T09:11:34.527Z,66.20
2023-07-09T09:14:07.030Z,65.70
2023-07-09T09:16:38.771Z,64.80
2023-07-09T09:19:23.956Z,64.60
2023-07-09T09:21:58.902Z,63.50
2023-07-09T09:24:36.568Z,64.30
2023-07-09T09:27:03.571Z,62.50
2023-07-09T09:29:32.660Z,60.60
2023-07-09T09:32:16.452Z,60.80
2023-07-09T09:34:43.168Z,61.00
2023-07-09T09:37:13.222Z,60.90
2023-07-09T09:39:40.245Z,61.40
2023-07-09T09:42:12.706Z,60.50
2023-07-09T09:44:45.346Z,59.90
2023-07-09T09:47:14.089Z,59.70
2023-07-09T09:49:41.967Z,60.30
2023-07-09T09:52:17.019Z,60.30
2023-07-09T09:55:02.284Z,59.40
2023-07-09T09:57:29.396Z,59.60
2023-07-09T09:59:56.373Z,58.50
2023-07-09T10:02:25.864Z,58.70
2023-07-09T10:04:53.060Z,59.20
2023-07-09T10:07:34.661Z,58.50
2023-07-09T10:10:03.127Z,58.20
2023-07-09T10:12:46.882Z,57.20
2023-07-09T10:15:42.691Z,57.00
2023-07-09T10:18:21.222Z,56.40
2023-07-09T10:21:16.658Z,56.80
2023-07-09T10:23:55.465Z,56.00
2023-07-09T10:26:37.836Z,55.50
2023-07-09T10:29:11.159Z,55.50
2023-07-09T10:32:11.334Z,54.90
2023-07-09T10:35:16.275Z,54.40
2023-07-09T10:38:34.373Z,55.00
2023-07-09T10:41:20.425Z,54.90
2023-07-09T10:44:17.054Z,55.20
2023-07-09T10:46:50.254Z,53.80
2023-07-09T10:49:18.978Z,54.00
2023-07-09T10:51:53.638Z,52.60
2023-07-09T10:54:39.756Z,52.80
2023-07-09T10:57:19.997Z,53.50
2023-07-09T10:59:50.488Z,53.70
2023-07-09T11:02:20.491Z,54.00
2023-07-09T11:04:50.349Z,54.00
2023-07-09T11:07:23.078Z,53.60
2023-07-09T11:09:53.722Z,53.70
2023-07-09T11:12:35.545Z,53.90
2023-07-09T11:15:05.079Z,54.00
2023-07-09T11:17:34.378Z,53.40
2023-07-09T11:20:08.701Z,53.80
2023-07-09T11:22:41.070Z,53.40
2023-07-09T11:25:12.988Z,53.50
2023-07-09T11:27:57.418Z,53.70
2023-07-09T11:30:27.835Z,53.50
2023-07-09T11:33:24.657Z,53.30
2023-07-09T11:35:55.987Z,53.10
2023-07-09T11:38:25.853Z,52.50
2023-07-09T11:40:55.773Z,52.80
2023-07-09T11:43:30.061Z,52.80
2023-07-09T11:46:01.994Z,52.40
2023-07-09T11:48:34.331Z,50.20
2023-07-09T11:51:09.306Z,51.00
2023-07-09T11:53:44.974Z,51.20
2023-07-09T11:56:13.307Z,50.00
2023-07-09T11:58:51.532Z,50.20
2023-07-09T12:01:22.238Z,50.60
2023-07-09T12:03:50.139Z,50.70
2023-07-09T12:06:27.487Z,50.80
2023-07-09T12:08:55.199Z,50.50
2023-07-09T12:11:33.943Z,50.20
2023-07-09T12:14:12.877Z,50.90
2023-07-09T12:16:42.399Z,50.60
2023-07-09T12:19:24.258Z,50.80
2023-07-09T12:21:57.114Z,49.00
2023-07-09T12:24:36.821Z,49.40
2023-07-09T12:27:16.936Z,48.90
2023-07-09T12:29:43.633Z,48.80
2023-07-09T12:32:17.473Z,48.70
2023-07-09T12:34:51.568Z,49.30
2023-07-09T12:37:19.315Z,49.60
2023-07-09T12:39:46.192Z,49.60
2023-07-09T12:42:18.964Z,50.10
2023-07-09T12:44:48.143Z,50.30
2023-07-09T12:47:16.223Z,49.70
2023-07-09T12:49:45.659Z,50.30
2023-07-09T12:52:30.562Z,50.20
2023-07-09T12:54:59.179Z,50.50
2023-07-09T12:57:27.003Z,50.60
2023-07-09T12:59:55.922Z,51.70
2023-07-09T13:02:25.639Z,51.30
2023-07-09T13:05:07.116Z,50.40
2023-07-09T13:07:38.817Z,51.20
2023-07-09T13:10:19.381Z,51.80
2023-07-09T13:12:49.766Z,51.80
2023-07-09T13:15:26.978Z,50.60
2023-07-09T13:18:06.176Z,49.90
2023-07-09T13:20:35.980Z,50.60
2023-07-09T13:23:09.265Z,50.60
2023-07-09T13:25:46.965Z,50.30
2023-07-09T13:28:19.094Z,51.10
2023-07-09T13:30:46.303Z,49.50
2023-07-09T13:33:13.019Z,50.20
2023-07-09T13:35:39.839Z,51.90
2023-07-09T13:38:18.053Z,50.70
2023-07-09T13:40:49.245Z,50.10
2023-07-09T13:43:22.560Z,49.40
2023-07-09T13:45:50.523Z,46.70
2023-07-09T13:48:20.053Z,43.90
2023-07-09T13:50:50.085Z,41.10
2023-07-09T13:53:26.466Z,39.80
2023-07-09T13:55:54.650Z,39.00
2023-07-09T13:58:23.692Z,38.10
2023-07-09T14:00:55.330Z,36.40
2023-07-09T14:03:26.202Z,36.30
2023-07-09T14:05:53.471Z,36.80
2023-07-09T14:08:22.747Z,37.30
2023-07-09T14:10:50.674Z,38.60
2023-07-09T14:13:19.969Z,39.50
2023-07-09T14:15:46.826Z,39.60
2023-07-09T14:18:19.501Z,41.20
2023-07-09T14:20:46.802Z,42.10
2023-07-09T14:23:17.059Z,43.00
2023-07-09T14:25:45.010Z,43.60
2023-07-09T14:28:17.185Z,44.10
2023-07-09T14:30:46.369Z,44.30
2023-07-09T14:33:19.760Z,45.10
2023-07-09T14:35:47.738Z,45.70
2023-07-09T14:38:19.184Z,45.70
2023-07-09T14:40:47.415Z,46.30
2023-07-09T14:43:14.549Z,45.20
2023-07-09T14:45:41.630Z,46.00
2023-07-09T14:48:13.806Z,44.80
2023-07-09T14:50:42.570Z,45.30
2023-07-09T14:53:16.536Z,44.80
2023-07-09T14:55:45.788Z,46.10
2023-07-09T14:58:21.116Z,46.50
2023-07-09T15:00:49.280Z,46.00
2023-07-09T15:03:25.037Z,46.30
2023-07-09T15:05:52.811Z,46.60
2023-07-09T15:08:25.239Z,45.90
2023-07-09T15:10:53.978Z,46.00
2023-07-09T15:13:34.483Z,46.60
2023-07-09T15:16:03.461Z,47.20
2023-07-09T15:18:30.264Z,46.90
2023-07-09T15:20:59.918Z,46.60
2023-07-09T15:23:29.513Z,47.50
2023-07-09T15:25:56.506Z,47.00
2023-07-09T15:28:23.610Z,46.20
2023-07-09T15:30:50.391Z,45.90
2023-07-09T15:33:19.794Z,46.70
2023-07-09T15:35:53.431Z,46.90
2023-07-09T15:38:20.223Z,46.50
2023-07-09T15:40:49.307Z,46.70
2023-07-09T15:43:16.956Z,46.80
2023-07-09T15:45:47.031Z,47.30
2023-07-09T15:48:24.686Z,47.30
2023-07-09T15:50:51.805Z,47.90
2023-07-09T15:53:18.829Z,47.50
2023-07-09T15:55:45.558Z,46.70
2023-07-09T15:58:26.031Z,47.40
2023-07-09T16:00:53.330Z,47.50
2023-07-09T16:03:23.187Z,47.10
2023-07-09T16:05:50.582Z,47.30
2023-07-09T16:08:17.452Z,47.00
2023-07-09T16:10:44.618Z,46.90
2023-07-09T16:13:23.621Z,47.30
2023-07-09T16:15:51.280Z,47.10
2023-07-09T16:18:19.164Z,47.20
2023-07-09T16:20:47.482Z,46.90
2023-07-09T16:23:24.328Z,47.70
2023-07-09T16:25:51.932Z,47.50
2023-07-09T16:28:20.868Z,47.30
2023-07-09T16:30:51.307Z,47.10
2023-07-09T16:33:19.101Z,47.20
2023-07-09T16:35:46.016Z,47.20
2023-07-09T16:38:13.182Z,47.40
2023-07-09T16:40:40.835Z,47.90
2023-07-09T16:43:16.738Z,48.20
2023-07-09T16:45:43.855Z,48.80
2023-07-09T16:48:20.273Z,48.70
2023-07-09T16:50:47.572Z,47.90
2023-07-09T16:53:17.292Z,48.10
2023-07-09T16:55:44.484Z,48.10
2023-07-09T16:58:30.153Z,48.10
2023-07-09T17:00:56.998Z,47.90
2023-07-09T17:03:24.150Z,47.80
2023-07-09T17:05:51.090Z,48.20
2023-07-09T17:08:17.798Z,49.00
2023-07-09T17:10:45.176Z,48.10
2023-07-09T17:13:25.101Z,48.70
2023-07-09T17:15:52.563Z,49.00
2023-07-09T17:18:29.113Z,49.10
2023-07-09T17:20:57.459Z,49.50
2023-07-09T17:23:28.003Z,49.20
2023-07-09T17:25:55.438Z,49.70
2023-07-09T17:28:24.831Z,49.30
2023-07-09T17:30:52.382Z,50.00
2023-07-09T17:33:20.039Z,51.70
2023-07-09T17:35:49.898Z,52.30
2023-07-09T17:38:20.829Z,52.60
2023-07-09T17:40:47.729Z,53.60
2023-07-09T17:43:21.582Z,54.90
2023-07-09T17:45:49.409Z,54.70
2023-07-09T17:48:37.921Z,54.70
2023-07-09T17:51:05.172Z,55.20
2023-07-09T17:53:34.339Z,54.40
2023-07-09T17:56:02.524Z,54.70
2023-07-09T17:58:36.113Z,55.80
2023-07-09T18:01:07.209Z,55.70
2023-07-09T18:03:34.608Z,55.40
2023-07-09T18:06:01.814Z,55.00
2023-07-09T18:08:28.958Z,55.50
2023-07-09T18:10:56.017Z,56.00
2023-07-09T18:13:28.570Z,56.80
2023-07-09T18:15:56.317Z,57.20
2023-07-09T18:18:23.425Z,57.50
2023-07-09T18:20:50.298Z,58.40
2023-07-09T18:23:17.324Z,59.70
2023-07-09T18:25:46.378Z,61.10
2023-07-09T18:28:26.720Z,59.40
2023-07-09T18:31:03.333Z,60.40
2023-07-09T18:33:40.125Z,60.70
2023-07-09T18:36:07.004Z,60.70
2023-07-09T18:38:33.662Z,60.80
2023-07-09T18:41:00.536Z,60.70
2023-07-09T18:45:56.882Z,59.80
2023-07-09T18:48:28.825Z,60.70
2023-07-09T18:50:57.581Z,60.90
2023-07-09T18:53:26.033Z,60.70
2023-07-09T18:55:54.266Z,60.80
2023-07-09T18:58:24.639Z,61.30
2023-07-09T19:00:51.680Z,61.80
2023-07-09T19:03:22.905Z,62.10
2023-07-09T19:05:50.087Z,61.30
2023-07-09T19:08:26.126Z,61.20
2023-07-09T19:10:53.662Z,59.80
2023-07-09T19:13:22.236Z,59.70
2023-07-09T19:15:50.813Z,59.80
2023-07-09T19:18:24.918Z,60.20
2023-07-09T19:20:57.127Z,60.60
2023-07-09T19:23:24.714Z,61.90
2023-07-09T19:25:52.704Z,62.00
2023-07-09T19:28:21.799Z,61.90
2023-07-09T19:30:50.098Z,62.80
2023-07-09T19:33:22.640Z,62.90
2023-07-09T19:35:49.417Z,62.80
2023-07-09T19:38:16.224Z,63.40
2023-07-09T19:40:43.004Z,62.90
2023-07-09T19:43:13.142Z,63.20
2023-07-09T19:45:50.962Z,63.00
2023-07-09T19:48:28.651Z,64.20
2023-07-09T19:50:55.877Z,63.50
2023-07-09T19:53:28.314Z,63.90
2023-07-09T19:55:56.841Z,63.60
2023-07-09T19:58:24.084Z,65.20
2023-07-09T20:00:52.035Z,65.00
2023-07-09T20:03:24.394Z,63.50
2023-07-09T20:05:51.778Z,62.90
2023-07-09T20:08:20.240Z,66.00
2023-07-09T20:10:47.558Z,65.50
2023-07-09T20:13:36.109Z,66.30
2023-07-09T20:16:03.589Z,65.60
2023-07-09T20:18:31.006Z,65.00
2023-07-09T20:21:01.088Z,65.20
2023-07-09T20:23:31.946Z,64.80
2023-07-09T20:25:59.203Z,65.70
2023-07-09T20:28:29.161Z,66.10
2023-07-09T20:30:57.459Z,66.10
2023-07-09T20:33:25.003Z,66.40
2023-07-09T20:35:52.594Z,66.60
2023-07-09T20:38:20.646Z,66.60
2023-07-09T20:40:48.386Z,66.60
2023-07-09T20:43:25.035Z,66.90
2023-07-09T20:45:51.935Z,67.30
2023-07-09T20:48:20.067Z,67.60
2023-07-09T20:50:48.313Z,67.80
2023-07-09T20:53:17.335Z,68.20
2023-07-09T20:55:45.286Z,69.10
2023-07-09T20:58:17.802Z,68.80
2023-07-09T21:00:45.943Z,68.80
2023-07-09T21:03:19.305Z,68.50
2023-07-09T21:05:50.743Z,68.50
2023-07-09T21:08:20.650Z,68.30
2023-07-09T21:10:48.747Z,68.60
2023-07-09T21:13:18.955Z,68.70
2023-07-09T21:15:50.576Z,68.80
2023-07-09T21:18:19.541Z,69.10
2023-07-09T21:20:47.115Z,69.90
2023-07-09T21:23:22.900Z,70.50
2023-07-09T21:25:49.871Z,70.30
2023-07-09T21:28:16.976Z,70.40
2023-07-09T21:30:44.574Z,70.50
2023-07-09T21:33:19.602Z,71.00
2023-07-09T21:35:47.528Z,71.30
2023-07-09T21:38:20.838Z,71.30
2023-07-09T21:40:48.661Z,71.60
2023-07-09T21:43:15.541Z,71.70
2023-07-09T21:45:43.744Z,72.20
2023-07-09T21:48:16.912Z,72.40
2023-07-09T21:50:43.937Z,72.60
2023-07-09T21:53:23.500Z,72.90
2023-07-09T21:55:57.760Z,72.70
2023-07-09T21:58:24.509Z,73.10
2023-07-09T22:00:56.526Z,73.60
2023-07-09T22:03:24.485Z,73.40
2023-07-09T22:05:51.366Z,73.30
2023-07-09T22:08:21.292Z,73.50
2023-07-09T22:10:48.980Z,73.20
2023-07-09T22:13:17.539Z,73.40
2023-07-09T22:15:44.783Z,74.30
2023-07-09T22:18:17.287Z,74.40
2023-07-09T22:20:44.731Z,74.40
2023-07-09T22:23:21.652Z,74.60
2023-07-09T22:25:50.580Z,75.00
2023-07-09T22:28:18.646Z,75.10
2023-07-09T22:30:45.897Z,75.30
2023-07-09T22:33:13.358Z,75.30
2023-07-09T22:35:40.411Z,75.40
2023-07-09T22:38:25.666Z,75.70
2023-07-09T22:40:52.684Z,75.80
2023-07-09T22:43:20.187Z,76.10
2023-07-09T22:45:51.101Z,76.30
2023-07-09T22:48:20.122Z,76.00
2023-07-09T22:50:47.276Z,76.20
2023-07-09T22:53:17.086Z,76.10
2023-07-09T22:55:46.189Z,76.50
2023-07-09T22:58:14.822Z,76.50
2023-07-09T23:00:46.159Z,76.80
2023-07-09T23:03:19.537Z,77.10
2023-07-09T23:05:47.647Z,77.20
2023-07-09T23:08:22.546Z,77.10
2023-07-09T23:10:51.118Z,77.30
2023-07-09T23:13:18.203Z,77.90
2023-07-09T23:15:45.048Z,77.70
2023-07-09T23:18:18.711Z,78.10
2023-07-09T23:20:45.789Z,78.10
2023-07-09T23:23:12.602Z,78.00
2023-07-09T23:25:40.353Z,78.20
2023-07-09T23:28:07.764Z,78.50
2023-07-09T23:30:37.047Z,78.60
2023-07-09T23:33:28.942Z,78.70
2023-07-09T23:35:57.625Z,78.80
2023-07-09T23:38:30.578Z,78.80
2023-07-09T23:40:59.204Z,79.40
2023-07-09T23:43:38.222Z,79.60
2023-07-09T23:46:05.297Z,80.50
2023-07-09T23:48:32.390Z,80.00
2023-07-09T23:51:03.291Z,79.80
2023-07-09T23:53:32.746Z,79.80
2023-07-09T23:56:21.820Z,79.40
2023-07-09T23:58:49.385Z,79.40
